Time;durP1;ratioP1;P1;durP2;ratioP2;P2;SDS_P1;SDS_P2;PMS_P1;PMS_P2;Temp;Humidity;BMP_temperature;BMP_pressure;BME280_temperature;BME280_humidity;BME280_pressure;Samples;Min_cycle;Max_cycle;Signal;HPM_P1;HPM_P2
2021/04/19 00:02:14;;;;;;;5.73;5.23;;;10.60;99.30;;;;;;6155523;23;20804;-86
2021/04/19 00:04:43;;;;;;;6.93;6.33;;;10.50;99.20;;;;;;6154794;23;20406;-85
2021/04/19 00:07:13;;;;;;;6.13;5.53;;;10.50;99.20;;;;;;6155054;23;20443;-86
2021/04/19 00:09:44;;;;;;;5.27;4.77;;;10.50;99.20;;;;;;6155622;23;20423;-86
2021/04/19 00:12:14;;;;;;;9.20;5.60;;;10.40;99.20;;;;;;6155467;23;20414;-86
2021/04/19 00:14:46;;;;;;;6.30;5.20;;;10.50;99.20;;;;;;6155227;23;20415;-86
2021/04/19 00:20:28;;;;;;;7.25;6.35;;;10.30;99.10;;;;;;6154635;23;20906;-86
2021/04/19 00:22:55;;;;;;;9.83;6.43;;;10.30;99.30;;;;;;6155836;23;20224;-86
2021/04/19 00:25:25;;;;;;;8.07;6.43;;;10.20;99.20;;;;;;6166751;23;20403;-86
2021/04/19 00:28:06;;;;;;;6.40;5.80;;;10.20;99.20;;;;;;6166299;23;20441;-86
2021/04/19 00:30:33;;;;;;;8.23;7.27;;;10.10;99.20;;;;;;6153917;23;20604;-86
2021/04/19 00:33:07;;;;;;;6.97;6.37;;;10.20;99.50;;;;;;6155009;23;20388;-86
2021/04/19 00:35:47;;;;;;;10.83;6.00;;;10.20;99.40;;;;;;6155423;23;20418;-86
2021/04/19 00:38:30;;;;;;;7.47;6.67;;;10.10;99.30;;;;;;6166498;23;20439;-86
2021/04/19 00:41:06;;;;;;;8.30;7.50;;;10.00;99.30;;;;;;6155557;23;20916;-86
2021/04/19 00:43:49;;;;;;;9.53;6.50;;;9.90;99.80;;;;;;6168053;23;20483;-86
2021/04/19 00:46:18;;;;;;;7.00;6.30;;;9.80;99.80;;;;;;6157185;23;20415;-86
2021/04/19 00:49:17;;;;;;;7.67;6.43;;;9.80;99.80;;;;;;6157566;23;20917;-86
2021/04/19 00:51:45;;;;;;;7.67;6.33;;;9.80;99.80;;;;;;6148978;23;20509;-86
2021/04/19 00:54:15;;;;;;;8.07;7.27;;;9.70;99.80;;;;;;6166329;23;20417;-86
2021/04/19 00:56:47;;;;;;;10.63;7.83;;;9.70;99.90;;;;;;6154810;23;20443;-85
2021/04/19 00:59:20;;;;;;;8.10;7.30;;;9.60;99.80;;;;;;6167075;23;20409;-85
2021/04/19 01:01:51;;;;;;;9.50;7.80;;;9.60;99.90;;;;;;6154798;23;20420;-86
2021/04/19 01:04:45;;;;;;;8.43;7.63;;;9.60;99.90;;;;;;6180054;23;20794;-86
2021/04/19 01:07:36;;;;;;;10.17;7.77;;;9.60;99.90;;;;;;6155965;23;20440;-86
2021/04/19 01:10:13;;;;;;;9.60;8.23;;;9.60;99.90;;;;;;6114194;23;20434;-86
2021/04/19 01:13:13;;;;;;;;;;;;;;;;;;;;;
2021/04/19 01:15:55;;;;;;;8.37;7.37;;;9.50;99.90;;;;;;6142836;23;20461;-86
2021/04/19 01:18:25;;;;;;;11.33;7.73;;;9.50;99.90;;;;;;6156533;23;20443;-86
2021/04/19 01:21:05;;;;;;;9.40;7.57;;;9.40;99.90;;;;;;6156821;23;20872;-86
2021/04/19 01:23:59;;;;;;;9.93;8.20;;;9.40;99.90;;;;;;6096594;23;20910;-86
2021/04/19 01:26:30;;;;;;;9.80;7.83;;;9.40;99.90;;;;;;6156388;23;20406;-86
2021/04/19 01:28:58;;;;;;;9.47;8.43;;;9.40;99.90;;;;;;6156596;23;20498;-86
2021/04/19 01:31:33;;;;;;;12.50;8.57;;;9.30;99.90;;;;;;6156705;23;20420;-86
2021/04/19 01:34:09;;;;;;;12.13;7.83;;;9.30;99.90;;;;;;6156648;23;20418;-86
2021/04/19 01:36:59;;;;;;;9.30;8.30;;;9.30;99.90;;;;;;6156471;23;20941;-86
2021/04/19 01:39:51;;;;;;;10.17;9.17;;;9.20;99.90;;;;;;6156319;23;20482;-86
2021/04/19 01:42:50;;;;;;;11.40;9.50;;;9.20;99.90;;;;;;6156381;23;20413;-86
2021/04/19 01:46:03;;;;;;;13.03;9.57;;;9.20;99.90;;;;;;6167709;23;20410;-86
2021/04/19 01:48:32;;;;;;;12.03;10.07;;;9.10;99.90;;;;;;6156197;23;20936;-86
2021/04/19 01:51:10;;;;;;;12.53;10.30;;;9.10;99.90;;;;;;6156600;23;20489;-86
2021/04/19 01:53:46;;;;;;;11.60;10.50;;;9.10;99.90;;;;;;6156689;23;20428;-86
2021/04/19 01:56:35;;;;;;;13.43;11.20;;;9.10;99.90;;;;;;6181078;23;20412;-86
2021/04/19 01:59:07;;;;;;;13.23;11.80;;;9.00;99.90;;;;;;6156157;23;20447;-86
2021/04/19 02:01:50;;;;;;;15.47;12.20;;;8.90;99.90;;;;;;6156170;23;20483;-86
2021/04/19 02:04:38;;;;;;;14.63;12.97;;;8.90;99.90;;;;;;6156151;23;20408;-86
2021/04/19 02:07:24;;;;;;;14.47;12.37;;;8.90;99.90;;;;;;6156147;23;20446;-86
2021/04/19 02:10:18;;;;;;;14.20;12.07;;;8.90;99.90;;;;;;6156733;23;20423;-86
2021/04/19 02:13:00;;;;;;;15.57;13.90;;;8.80;99.90;;;;;;6151422;23;20491;-86
2021/04/19 02:15:42;;;;;;;15.80;14.10;;;8.80;99.90;;;;;;6155996;23;20421;-86
2021/04/19 02:18:16;;;;;;;18.47;15.60;;;8.80;99.90;;;;;;6180910;23;20526;-86
2021/04/19 02:20:50;;;;;;;20.20;16.90;;;8.80;99.90;;;;;;6157514;23;20416;-85
2021/04/19 02:23:31;;;;;;;18.37;16.53;;;8.80;99.90;;;;;;6156689;23;20846;-85
2021/04/19 05:40:02;;;;;;;37.13;33.60;;;8.80;99.90;;;;;;5777292;24;20468;-86
2021/04/19 12:33:27;;;;;;;14.37;12.33;;;16.20;99.90;;;;;;5117901;27;21089;-84
2021/04/19 12:35:54;;;;;;;13.70;12.33;;;16.20;99.90;;;;;;5115870;28;20456;-83
2021/04/19 12:38:21;;;;;;;15.70;13.90;;;16.30;99.90;;;;;;5115136;28;20428;-83
2021/04/19 12:40:49;;;;;;;13.30;11.90;;;16.30;99.90;;;;;;5115616;28;20468;-85
2021/04/19 12:43:20;;;;;;;14.67;12.53;;;16.30;99.90;;;;;;5115876;28;20493;-85
2021/04/19 12:45:51;;;;;;;13.63;12.33;;;16.30;99.90;;;;;;5115179;28;21034;-84
2021/04/19 12:48:18;;;;;;;16.40;13.47;;;16.30;99.90;;;;;;5114751;28;20444;-84
2021/04/19 12:50:46;;;;;;;13.70;12.40;;;16.30;99.90;;;;;;5117175;28;20995;-85
2021/04/19 12:53:14;;;;;;;13.23;11.83;;;16.30;99.70;;;;;;5115787;28;20464;-85
2021/04/19 12:56:00;;;;;;;13.23;11.87;;;16.30;99.60;;;;;;5116977;28;20430;-84
2021/04/19 12:58:28;;;;;;;15.47;13.97;;;16.30;99.50;;;;;;5115099;28;20447;-84
2021/04/19 13:00:55;;;;;;;14.00;12.20;;;16.30;99.40;;;;;;5115969;28;20464;-83
2021/04/19 13:03:24;;;;;;;12.20;10.60;;;16.30;99.60;;;;;;5114942;28;20468;-85
2021/04/19 13:05:53;;;;;;;14.17;11.87;;;16.30;99.60;;;;;;5115307;28;20451;-84
2021/04/19 13:08:20;;;;;;;14.40;12.40;;;16.30;99.10;;;;;;5115260;28;20535;-82
2021/04/19 13:10:48;;;;;;;14.95;13.45;;;16.40;99.10;;;;;;5115836;28;20442;-84
2021/04/19 13:13:15;;;;;;;13.80;12.50;;;16.40;98.40;;;;;;5114655;28;20206;-84
2021/04/19 13:15:42;;;;;;;16.03;13.50;;;16.50;98.50;;;;;;5115694;28;20420;-83
2021/04/19 13:18:10;;;;;;;14.13;12.57;;;16.60;98.60;;;;;;5115698;28;20428;-85
2021/04/19 13:20:37;;;;;;;13.70;12.40;;;16.60;98.60;;;;;;5115074;28;20427;-84
2021/04/19 13:23:06;;;;;;;13.73;12.27;;;16.70;98.30;;;;;;5114195;28;20182;-84
2021/04/19 13:25:34;;;;;;;13.50;12.10;;;16.80;98.30;;;;;;5114897;28;20848;-83
2021/04/19 13:28:02;;;;;;;15.13;13.23;;;16.80;98.30;;;;;;5113786;28;20436;-83
2021/04/19 13:30:33;;;;;;;14.70;13.30;;;16.80;98.50;;;;;;5113652;28;20875;-84
2021/04/19 13:33:00;;;;;;;14.20;12.80;;;16.90;98.20;;;;;;5114307;28;20468;-82
2021/04/19 13:35:28;;;;;;;13.70;12.43;;;16.90;98.00;;;;;;5112668;28;20444;-84
2021/04/19 13:37:57;;;;;;;13.87;12.40;;;16.90;98.00;;;;;;5113968;28;20897;-85
2021/04/19 13:40:25;;;;;;;14.67;13.20;;;16.90;98.00;;;;;;5114540;28;20498;-83
2021/04/19 13:42:53;;;;;;;14.07;12.67;;;16.90;98.00;;;;;;5112249;28;20441;-84
2021/04/19 13:45:22;;;;;;;14.10;12.80;;;17.00;97.90;;;;;;5101545;28;20470;-84
2021/04/19 13:47:50;;;;;;;15.87;14.27;;;17.10;98.00;;;;;;5102110;28;20452;-86
2021/04/19 13:50:31;;;;;;;15.33;13.57;;;17.10;97.90;;;;;;5100204;28;20475;-83
2021/04/19 13:53:16;;;;;;;14.60;13.10;;;17.20;97.90;;;;;;5101160;28;20461;-84
2021/04/19 13:56:23;;;;;;;15.03;13.43;;;17.30;97.90;;;;;;5100800;28;20490;-84
2021/04/19 13:59:18;;;;;;;13.87;12.53;;;17.40;97.90;;;;;;5095939;28;20469;-83
2021/04/19 14:02:21;;;;;;;13.27;12.07;;;17.50;98.00;;;;;;5100580;28;20512;-84
2021/04/19 14:05:41;;;;;;;14.20;12.57;;;17.60;97.80;;;;;;5060729;28;20535;-84
2021/04/19 14:09:08;;;;;;;;;;;;;;;;;;;;;
2021/04/19 14:12:27;;;;;;;15.60;13.50;;;17.80;97.70;;;;;;5100538;28;20480;-84
2021/04/19 14:19:14;;;;;;;13.57;12.20;;;17.90;97.50;;;;;;5099765;28;20464;-84
2021/04/19 14:21:57;;;;;;;16.00;14.40;;;17.90;97.50;;;;;;5098780;28;20444;-84
2021/04/19 14:25:24;;;;;;;14.73;13.13;;;18.00;96.70;;;;;;5041179;28;20215;-84
2021/04/19 14:34:16;;;;;;;14.37;12.97;;;17.80;96.50;;;;;;5052017;28;20475;-83
2021/04/19 14:36:43;;;;;;;14.77;13.27;;;17.70;96.50;;;;;;5052289;28;20527;-83
2021/04/19 14:39:11;;;;;;;15.57;13.90;;;17.60;96.50;;;;;;5051915;28;20467;-83
2021/04/19 14:41:38;;;;;;;15.73;14.17;;;17.60;96.50;;;;;;5052592;28;20478;-83
2021/04/19 14:44:06;;;;;;;20.67;13.67;;;17.50;96.50;;;;;;5052815;28;20440;-83
2021/04/19 14:46:36;;;;;;;18.83;14.87;;;17.50;96.50;;;;;;5052800;28;20451;-83
2021/04/19 14:49:04;;;;;;;15.20;13.60;;;17.40;96.40;;;;;;5054007;28;21030;-83
2021/04/19 14:51:34;;;;;;;14.60;13.10;;;17.40;96.50;;;;;;5052609;28;20460;-83
2021/04/19 14:54:04;;;;;;;15.50;13.90;;;17.30;96.40;;;;;;5053999;28;20446;-83
2021/04/19 14:56:32;;;;;;;15.50;13.70;;;17.30;96.50;;;;;;5051966;28;20816;-83
2021/04/19 14:58:59;;;;;;;15.40;13.80;;;17.30;96.20;;;;;;5052200;28;20479;-83
2021/04/19 15:01:26;;;;;;;15.23;13.63;;;17.20;96.20;;;;;;5054465;28;20466;-82
2021/04/19 15:03:54;;;;;;;15.60;13.17;;;17.10;96.20;;;;;;5051310;28;20440;-83
2021/04/19 15:06:22;;;;;;;15.70;13.30;;;17.20;96.20;;;;;;5051352;28;20443;-83
2021/04/19 15:08:51;;;;;;;15.33;13.87;;;17.20;96.20;;;;;;5050945;28;20448;-83
2021/04/19 15:11:18;;;;;;;15.07;13.57;;;17.20;96.20;;;;;;5051269;28;20451;-83
2021/04/19 15:13:46;;;;;;;14.57;13.03;;;17.20;96.30;;;;;;5051244;28;20477;-83
2021/04/19 15:16:13;;;;;;;15.83;14.20;;;17.20;96.20;;;;;;5051499;28;20451;-83
2021/04/19 15:18:44;;;;;;;13.90;12.40;;;17.30;96.10;;;;;;5051673;28;20443;-83
2021/04/19 15:21:24;;;;;;;15.53;13.93;;;17.30;96.10;;;;;;5052091;28;20445;-83
2021/04/19 15:23:53;;;;;;;14.50;13.00;;;17.40;96.10;;;;;;5051949;28;20486;-83
2021/04/19 15:26:21;;;;;;;15.50;14.00;;;17.60;96.10;;;;;;5053380;28;20442;-83
2021/04/19 15:29:17;;;;;;;16.45;14.75;;;17.70;96.10;;;;;;5042062;28;20457;-83
2021/04/19 15:31:50;;;;;;;15.57;14.07;;;17.70;95.90;;;;;;5050776;28;20201;-83
2021/04/19 15:34:24;;;;;;;14.80;12.70;;;17.70;95.90;;;;;;5050350;28;20451;-84
2021/04/19 15:36:57;;;;;;;15.13;13.63;;;17.70;95.80;;;;;;5052115;28;20478;-83
2021/04/19 15:39:36;;;;;;;14.45;13.15;;;17.70;95.70;;;;;;5051191;28;20449;-83
2021/04/19 15:42:05;;;;;;;15.60;14.10;;;17.60;95.30;;;;;;5052153;28;20165;-83
2021/04/19 15:44:47;;;;;;;13.80;12.40;;;17.60;95.30;;;;;;5051957;28;20416;-83
2021/04/19 15:47:32;;;;;;;;;;;;;;;;;;;;;
2021/04/19 15:50:36;;;;;;;14.43;13.03;;;17.50;95.40;;;;;;5042451;28;20483;-84
2021/04/19 15:53:15;;;;;;;15.10;13.70;;;17.40;95.40;;;;;;5049067;28;20477;-84
2021/04/19 15:55:58;;;;;;;13.90;12.60;;;17.40;95.40;;;;;;5048200;28;20440;-84
2021/04/19 15:58:35;;;;;;;16.03;13.00;;;17.40;95.40;;;;;;5047514;28;20487;-84
2021/04/19 16:01:11;;;;;;;15.37;13.03;;;17.30;95.30;;;;;;5048087;28;20447;-83
2021/04/19 16:04:04;;;;;;;17.37;14.77;;;17.30;95.30;;;;;;5046579;28;20816;-83
2021/04/19 16:06:37;;;;;;;14.90;13.40;;;17.30;95.30;;;;;;5047766;28;20452;-85
2021/04/19 16:09:06;;;;;;;16.20;13.50;;;17.30;95.30;;;;;;5044283;28;20471;-85
2021/04/19 16:11:35;;;;;;;15.17;13.77;;;17.30;95.30;;;;;;5044347;28;20451;-85
2021/04/19 16:14:03;;;;;;;15.53;14.10;;;17.30;95.30;;;;;;5046521;28;20816;-85
2021/04/19 16:16:31;;;;;;;15.53;13.83;;;17.30;95.30;;;;;;5042566;28;20455;-84
2021/04/19 16:18:59;;;;;;;16.73;14.93;;;17.30;95.30;;;;;;5039912;28;20489;-84
2021/04/19 16:21:28;;;;;;;15.80;14.10;;;17.30;95.40;;;;;;5046515;28;20478;-84
2021/04/19 16:24:01;;;;;;;15.50;14.00;;;17.30;95.30;;;;;;5046138;28;20443;-84
2021/04/19 16:26:31;;;;;;;14.03;12.73;;;17.30;95.20;;;;;;5042352;28;20446;-85
2021/04/19 16:29:04;;;;;;;12.93;11.60;;;17.30;95.10;;;;;;5041177;28;20471;-84
2021/04/19 16:31:33;;;;;;;14.57;13.00;;;17.30;95.10;;;;;;5041830;28;20486;-84
2021/04/19 16:34:01;;;;;;;13.70;12.30;;;17.30;95.20;;;;;;5040745;28;20480;-84
2021/04/19 16:36:32;;;;;;;15.93;14.32;;;17.30;95.30;;;;;;5044917;28;20485;-84
2021/04/19 16:39:00;;;;;;;15.87;14.33;;;17.30;95.40;;;;;;5041428;28;20220;-83
2021/04/19 16:41:27;;;;;;;15.90;14.30;;;17.30;95.40;;;;;;5043066;28;20451;-83
2021/04/19 16:43:55;;;;;;;15.53;13.60;;;17.30;95.50;;;;;;5042713;28;20817;-83
2021/04/19 16:46:23;;;;;;;16.30;14.70;;;17.30;95.50;;;;;;5037970;28;20462;-85
2021/04/19 16:48:50;;;;;;;15.00;13.43;;;17.30;95.50;;;;;;5039832;28;20470;-83
2021/04/19 16:51:19;;;;;;;15.23;13.73;;;17.30;95.50;;;;;;5044804;28;20466;-83
2021/04/19 16:53:46;;;;;;;14.43;12.90;;;17.30;95.60;;;;;;5045955;28;20473;-83
2021/04/19 16:56:14;;;;;;;15.33;13.77;;;17.40;95.80;;;;;;5047311;28;20423;-83
2021/04/19 16:58:41;;;;;;;13.90;12.50;;;17.50;96.00;;;;;;5043366;28;20468;-83
2021/04/19 17:01:10;;;;;;;15.33;13.83;;;17.60;96.00;;;;;;5044518;28;20440;-83
2021/04/19 17:03:39;;;;;;;15.67;14.07;;;17.80;96.00;;;;;;5046574;28;20422;-83
2021/04/19 17:06:07;;;;;;;14.20;12.77;;;18.00;96.00;;;;;;5045189;28;20451;-83
2021/04/19 17:08:35;;;;;;;14.23;12.83;;;18.00;95.80;;;;;;5045671;28;20428;-83
2021/04/19 17:11:04;;;;;;;16.00;14.30;;;18.00;95.90;;;;;;5044170;28;20451;-83
2021/04/19 17:13:31;;;;;;;15.97;14.37;;;18.10;96.00;;;;;;5044728;28;20493;-83
2021/04/19 17:15:59;;;;;;;16.83;15.13;;;18.10;95.90;;;;;;5044350;28;20466;-83
2021/04/19 17:18:26;;;;;;;15.60;14.00;;;18.10;95.80;;;;;;5045884;28;20466;-83
2021/04/19 17:20:55;;;;;;;15.47;13.00;;;18.20;95.70;;;;;;5049917;28;21021;-83
2021/04/19 17:23:23;;;;;;;14.57;13.10;;;18.60;95.60;;;;;;5048916;28;20443;-83
2021/04/19 17:25:50;;;;;;;15.37;13.77;;;19.00;95.40;;;;;;5049415;28;20506;-83
2021/04/19 17:28:18;;;;;;;16.00;14.40;;;19.30;95.20;;;;;;5047313;28;20473;-82
2021/04/19 17:30:46;;;;;;;14.70;13.23;;;19.60;94.90;;;;;;5045260;28;20494;-84
2021/04/19 17:33:13;;;;;;;14.60;13.10;;;19.90;94.70;;;;;;5040175;28;20863;-83
2021/04/19 17:35:41;;;;;;;15.33;13.93;;;20.10;94.40;;;;;;5044327;28;20451;-85
2021/04/19 17:38:10;;;;;;;14.37;12.87;;;20.10;94.10;;;;;;5041701;28;20509;-85
2021/04/19 17:40:38;;;;;;;13.50;12.10;;;20.00;93.90;;;;;;5044607;28;20562;-83
2021/04/19 17:43:06;;;;;;;15.30;13.70;;;19.60;93.80;;;;;;5045503;28;20423;-83
2021/04/19 17:45:35;;;;;;;16.03;14.30;;;19.30;93.90;;;;;;5046482;28;20446;-83
2021/04/19 17:48:03;;;;;;;15.63;14.03;;;19.00;93.90;;;;;;5041658;28;20427;-84
2021/04/19 17:50:31;;;;;;;16.30;14.60;;;18.60;93.90;;;;;;5041074;28;20467;-84
2021/04/19 17:52:59;;;;;;;15.40;13.80;;;18.40;93.90;;;;;;5040006;28;20972;-84
2021/04/19 17:55:28;;;;;;;16.23;14.03;;;18.20;93.90;;;;;;5038420;28;20354;-84
2021/04/19 17:57:56;;;;;;;15.50;13.10;;;17.90;93.80;;;;;;5038254;28;20478;-84
2021/04/19 18:00:23;;;;;;;15.97;14.40;;;17.70;93.90;;;;;;5038546;28;20517;-85
2021/04/19 18:02:53;;;;;;;16.30;14.63;;;17.60;94.00;;;;;;5041291;28;20851;-85
2021/04/19 18:05:22;;;;;;;17.80;15.90;;;17.40;94.00;;;;;;5041111;28;20447;-84
2021/04/19 18:07:50;;;;;;;20.70;18.50;;;17.30;94.00;;;;;;5041657;28;20458;-84
2021/04/19 18:10:19;;;;;;;18.43;16.50;;;17.20;94.00;;;;;;5045946;28;20463;-83
2021/04/19 18:13:04;;;;;;;18.00;16.10;;;17.10;94.00;;;;;;5048149;28;20455;-84
2021/04/19 18:15:34;;;;;;;18.73;16.53;;;16.90;94.10;;;;;;5044176;28;20439;-83
2021/04/19 18:18:01;;;;;;;17.30;15.40;;;16.80;94.10;;;;;;5045031;28;20475;-84
2021/04/19 18:20:29;;;;;;;17.77;15.87;;;16.70;94.10;;;;;;5044623;28;20502;-84
2021/04/19 18:22:57;;;;;;;16.00;14.37;;;16.60;94.10;;;;;;5045392;28;20436;-83
2021/04/19 18:25:24;;;;;;;16.60;14.93;;;16.50;94.10;;;;;;5045248;28;20473;-83
2021/04/19 18:27:52;;;;;;;16.83;15.10;;;16.40;94.20;;;;;;5045679;28;20454;-83
2021/04/19 18:30:21;;;;;;;15.73;14.03;;;16.40;94.20;;;;;;5039670;28;20908;-85
2021/04/19 18:32:58;;;;;;;16.30;14.60;;;16.30;94.30;;;;;;5036725;28;20857;-85
2021/04/19 18:35:26;;;;;;;16.63;15.03;;;16.20;94.30;;;;;;5038302;28;20450;-86
2021/04/19 18:37:54;;;;;;;19.10;15.57;;;16.10;94.30;;;;;;5038201;28;20837;-85
2021/04/19 18:40:21;;;;;;;17.53;15.90;;;16.00;94.30;;;;;;5036331;28;20482;-85
2021/04/19 18:42:51;;;;;;;18.47;16.57;;;15.90;94.40;;;;;;5036884;28;20443;-85
2021/04/19 18:45:20;;;;;;;17.80;16.13;;;15.90;94.40;;;;;;5039872;28;20448;-84
2021/04/19 18:47:47;;;;;;;16.30;14.60;;;15.80;94.50;;;;;;5039461;28;20790;-85
2021/04/19 18:50:15;;;;;;;16.95;15.15;;;15.70;94.50;;;;;;5035095;28;20447;-85
2021/04/19 18:52:42;;;;;;;16.13;14.53;;;15.60;94.50;;;;;;5036053;28;20217;-85
2021/04/19 18:55:11;;;;;;;18.03;16.27;;;15.60;94.50;;;;;;5035894;28;20978;-85
2021/04/19 18:57:38;;;;;;;19.03;17.10;;;15.50;94.60;;;;;;5036122;28;20486;-86
2021/04/19 19:00:10;;;;;;;18.90;16.90;;;15.40;94.60;;;;;;5036002;28;20861;-86
2021/04/19 19:02:39;;;;;;;18.93;17.03;;;15.30;94.70;;;;;;5036184;28;20444;-86
2021/04/19 19:05:09;;;;;;;16.97;15.23;;;15.30;94.70;;;;;;5036236;28;20943;-85
2021/04/19 19:07:37;;;;;;;19.10;17.10;;;15.20;94.70;;;;;;5028367;28;20990;-85
2021/04/19 19:10:06;;;;;;;21.77;19.67;;;15.10;94.80;;;;;;5036178;28;20482;-85
2021/04/19 19:12:33;;;;;;;20.80;18.70;;;15.00;94.80;;;;;;5037494;28;20960;-85
2021/04/19 19:15:01;;;;;;;19.53;17.53;;;14.90;94.90;;;;;;5037330;28;20509;-85
2021/04/19 19:17:28;;;;;;;20.43;18.33;;;14.80;95.00;;;;;;5038828;28;20878;-85
2021/04/19 19:19:57;;;;;;;19.80;17.70;;;14.70;95.00;;;;;;5040260;28;20467;-84
2021/04/19 19:22:24;;;;;;;18.23;16.43;;;14.70;95.10;;;;;;5042741;28;20424;-84
2021/04/19 19:24:52;;;;;;;19.63;17.63;;;14.60;95.20;;;;;;5039515;28;20513;-84
2021/04/19 19:27:20;;;;;;;21.50;18.27;;;14.50;95.20;;;;;;5041369;28;20485;-84
2021/04/19 19:29:54;;;;;;;21.37;18.97;;;14.50;95.30;;;;;;5040381;28;20486;-83
2021/04/19 19:32:21;;;;;;;21.93;19.60;;;14.40;95.40;;;;;;5041925;28;20430;-84
2021/04/19 19:34:49;;;;;;;20.37;18.30;;;14.40;95.60;;;;;;5036993;28;20438;-85
2021/04/19 19:37:18;;;;;;;20.87;18.80;;;14.30;95.70;;;;;;5035153;28;20454;-85
2021/04/19 19:39:46;;;;;;;21.77;19.57;;;14.20;95.80;;;;;;5038821;28;20541;-85
2021/04/19 19:42:15;;;;;;;23.30;20.90;;;14.20;95.90;;;;;;5035203;28;20422;-86
2021/04/19 19:44:43;;;;;;;24.50;21.90;;;14.10;96.00;;;;;;5036866;28;20926;-85
2021/04/19 19:47:11;;;;;;;22.20;19.97;;;14.00;96.20;;;;;;5036382;28;20982;-85
2021/04/19 19:49:39;;;;;;;23.23;20.80;;;14.00;96.30;;;;;;5035595;28;20475;-85
2021/04/19 19:52:07;;;;;;;24.20;21.70;;;13.90;96.70;;;;;;5036499;28;20459;-85
2021/04/19 19:54:35;;;;;;;24.90;22.20;;;13.80;96.50;;;;;;5036796;28;20426;-85
2021/04/19 19:57:03;;;;;;;25.90;23.43;;;13.80;96.70;;;;;;5035902;28;20426;-86
2021/04/19 19:59:32;;;;;;;25.73;23.03;;;13.70;96.90;;;;;;5035994;28;20444;-86
2021/04/19 20:02:01;;;;;;;24.57;21.87;;;13.70;97.40;;;;;;5035400;28;20960;-86
2021/04/19 20:04:28;;;;;;;26.97;22.43;;;13.60;97.30;;;;;;5039949;28;20435;-86
2021/04/19 20:06:56;;;;;;;24.63;21.90;;;13.60;97.40;;;;;;5044342;28;20483;-86
2021/04/19 20:09:23;;;;;;;25.92;23.23;;;13.50;97.50;;;;;;5043587;28;20499;-86
2021/04/19 20:11:52;;;;;;;25.50;22.70;;;13.50;98.00;;;;;;5040529;28;20215;-86
2021/04/19 20:14:19;;;;;;;26.67;23.40;;;13.50;97.90;;;;;;5041101;28;20517;-86
2021/04/19 20:16:47;;;;;;;26.93;23.00;;;13.40;97.90;;;;;;5039104;28;20414;-86
2021/04/19 20:19:15;;;;;;;25.70;23.00;;;13.30;97.90;;;;;;5035335;28;20822;-86
2021/04/19 20:21:43;;;;;;;26.10;23.37;;;13.30;98.20;;;;;;5034721;28;20452;-86
2021/04/19 20:24:10;;;;;;;26.60;23.80;;;13.30;98.00;;;;;;5035119;28;20426;-86
2021/04/19 20:26:38;;;;;;;28.97;24.30;;;13.20;98.10;;;;;;5034429;28;20443;-86
2021/04/19 20:29:06;;;;;;;25.50;22.30;;;13.20;98.10;;;;;;5032547;28;20446;-86
2021/04/19 20:31:34;;;;;;;29.03;23.80;;;13.10;98.10;;;;;;5036917;28;20422;-86
2021/04/19 20:34:12;;;;;;;27.37;24.13;;;13.10;98.10;;;;;;5034741;28;21055;-87
2021/04/19 20:36:40;;;;;;;26.43;23.63;;;13.00;98.20;;;;;;5035249;28;20472;-86
2021/04/19 20:39:07;;;;;;;28.80;24.10;;;13.00;98.20;;;;;;5034753;28;20471;-86
2021/04/19 20:41:35;;;;;;;29.20;25.47;;;12.90;98.20;;;;;;5034946;28;20454;-86
2021/04/19 20:44:03;;;;;;;26.87;24.00;;;12.90;98.30;;;;;;5036569;28;20403;-87
2021/04/19 20:46:31;;;;;;;27.97;24.60;;;12.80;98.40;;;;;;5036561;28;20444;-86
2021/04/19 20:48:59;;;;;;;28.13;24.93;;;12.80;98.50;;;;;;5033901;28;20562;-86
2021/04/19 20:51:28;;;;;;;26.63;23.67;;;12.70;98.60;;;;;;5033928;28;20479;-86
2021/04/19 20:53:55;;;;;;;29.67;26.43;;;12.60;98.60;;;;;;5034921;28;20471;-87
2021/04/19 20:56:29;;;;;;;29.00;25.53;;;12.60;98.70;;;;;;5038150;28;20429;-86
2021/04/19 20:58:56;;;;;;;29.03;24.07;;;12.60;98.80;;;;;;5038171;28;20895;-86
2021/04/19 21:01:26;;;;;;;25.57;22.30;;;12.50;98.80;;;;;;5038606;28;20459;-86
2021/04/19 21:04:04;;;;;;;27.40;23.83;;;12.50;98.80;;;;;;5038867;28;20541;-86
2021/04/19 21:06:42;;;;;;;27.67;24.43;;;12.50;98.80;;;;;;5039893;28;20415;-87
2021/04/19 21:09:09;;;;;;;27.53;24.73;;;12.40;98.80;;;;;;5038127;28;20512;-86
2021/04/19 21:11:41;;;;;;;30.20;27.00;;;12.40;98.90;;;;;;5037592;28;20511;-86
2021/04/19 21:14:09;;;;;;;29.20;25.00;;;12.40;99.30;;;;;;5037838;28;20247;-86
2021/04/19 21:16:37;;;;;;;30.50;27.00;;;12.30;99.20;;;;;;5038921;28;20451;-86
2021/04/19 21:19:12;;;;;;;28.40;25.33;;;12.30;99.30;;;;;;5038507;28;20482;-87
2021/04/19 21:21:42;;;;;;;30.13;26.92;;;12.20;99.30;;;;;;5037847;28;20441;-86
2021/04/19 21:24:10;;;;;;;31.60;25.93;;;12.20;99.80;;;;;;5038594;28;20204;-86
2021/04/19 21:26:38;;;;;;;28.23;24.70;;;12.20;99.70;;;;;;5039254;28;20449;-87
2021/04/19 21:29:07;;;;;;;30.33;26.87;;;12.10;99.70;;;;;;5038072;28;20574;-86
2021/04/19 21:31:35;;;;;;;31.40;28.10;;;12.00;99.70;;;;;;5038086;28;20448;-86
2021/04/19 21:34:02;;;;;;;29.40;26.27;;;12.00;99.70;;;;;;5038597;28;20483;-86
2021/04/19 21:36:32;;;;;;;30.23;27.07;;;11.90;99.70;;;;;;5038350;28;20451;-86
2021/04/19 21:39:02;;;;;;;35.93;28.47;;;11.90;99.70;;;;;;5038759;28;20467;-86
2021/04/19 21:41:41;;;;;;;28.80;25.30;;;11.90;99.80;;;;;;5037921;28;20446;-86
2021/04/19 21:44:19;;;;;;;32.67;27.90;;;11.80;99.80;;;;;;5037580;28;20455;-86
2021/04/19 21:46:47;;;;;;;29.17;26.07;;;11.80;99.80;;;;;;5037593;28;20503;-87
2021/04/19 21:49:17;;;;;;;30.93;27.60;;;11.70;99.80;;;;;;5038286;28;20538;-87
2021/04/19 21:51:45;;;;;;;31.07;27.30;;;11.70;99.90;;;;;;5036859;28;20463;-85
2021/04/19 21:54:13;;;;;;;31.23;27.73;;;11.60;99.90;;;;;;5037345;28;20471;-87
2021/04/19 21:56:43;;;;;;;29.73;26.30;;;11.60;99.90;;;;;;5038015;28;20915;-86
2021/04/19 21:59:10;;;;;;;28.33;25.33;;;11.50;99.90;;;;;;5037033;28;20570;-86
2021/04/19 22:01:38;;;;;;;30.10;26.90;;;11.50;99.90;;;;;;5036238;28;20502;-86
2021/04/19 22:04:05;;;;;;;32.53;27.83;;;11.50;99.90;;;;;;5037336;28;20444;-86
2021/04/19 22:06:33;;;;;;;28.07;24.33;;;11.40;99.90;;;;;;5036437;28;20464;-86
2021/04/19 22:09:06;;;;;;;30.47;27.17;;;11.40;99.90;;;;;;5035907;28;20566;-86
2021/04/19 22:11:36;;;;;;;28.70;25.07;;;11.30;99.90;;;;;;5036475;28;20442;-86
2021/04/19 22:14:10;;;;;;;30.87;26.63;;;11.30;99.90;;;;;;5040019;28;20470;-87
2021/04/19 22:16:38;;;;;;;30.10;25.57;;;11.20;99.90;;;;;;5036154;28;20446;-87
2021/04/19 22:19:08;;;;;;;33.23;26.23;;;11.20;99.90;;;;;;5036847;28;20506;-86
2021/04/19 22:21:37;;;;;;;27.33;24.43;;;11.20;99.90;;;;;;5035976;28;20513;-86
2021/04/19 22:24:08;;;;;;;28.40;23.80;;;11.10;99.90;;;;;;5034714;28;20458;-86
2021/04/19 22:26:36;;;;;;;28.85;25.13;;;11.10;99.90;;;;;;5035943;28;20452;-86
2021/04/19 22:29:05;;;;;;;33.60;27.10;;;11.00;99.90;;;;;;5035528;28;20219;-86
2021/04/19 22:31:33;;;;;;;30.10;25.60;;;11.00;99.90;;;;;;5035632;28;20452;-86
2021/04/19 22:34:01;;;;;;;29.33;25.67;;;10.90;99.90;;;;;;5035642;28;20483;-86
2021/04/19 22:36:28;;;;;;;30.53;26.93;;;10.90;99.90;;;;;;5035018;28;20552;-86
2021/04/19 22:38:56;;;;;;;33.67;27.37;;;10.90;99.90;;;;;;5035289;28;20556;-86
2021/04/19 22:41:25;;;;;;;30.70;26.63;;;10.80;99.90;;;;;;5036604;28;20542;-86
2021/04/19 22:43:53;;;;;;;28.33;25.27;;;10.80;99.90;;;;;;5036899;28;20439;-86
2021/04/19 22:46:20;;;;;;;31.00;26.47;;;10.70;99.90;;;;;;5036784;28;20439;-86
2021/04/19 22:48:47;;;;;;;32.87;27.63;;;10.70;99.90;;;;;;5036525;28;20542;-87
2021/04/19 22:51:16;;;;;;;35.37;27.07;;;10.60;99.90;;;;;;5036818;28;20483;-86
2021/04/19 22:53:44;;;;;;;32.97;26.97;;;10.60;99.90;;;;;;5036601;28;20474;-87
2021/04/19 22:56:12;;;;;;;30.83;26.73;;;10.50;99.90;;;;;;5036104;28;20458;-86
2021/04/19 23:01:43;;;;;;;32.60;26.20;;;10.40;99.90;;;;;;5037557;28;20447;-86
2021/04/19 23:04:12;;;;;;;28.73;25.60;;;10.40;99.90;;;;;;5035483;28;20463;-86
2021/04/19 23:06:43;;;;;;;34.53;27.60;;;10.30;99.90;;;;;;5036013;28;20444;-86
2021/04/19 23:09:11;;;;;;;31.57;25.57;;;10.30;99.90;;;;;;5034696;28;20515;-86
2021/04/19 23:11:39;;;;;;;28.80;25.40;;;10.30;99.90;;;;;;5035096;28;20458;-86
2021/04/19 23:14:11;;;;;;;29.07;24.53;;;10.20;99.90;;;;;;5035013;28;20521;-87
2021/04/19 23:16:44;;;;;;;26.60;23.30;;;10.20;99.90;;;;;;5033949;28;20463;-86
2021/04/19 23:19:12;;;;;;;27.73;23.00;;;10.10;99.90;;;;;;5034609;28;20513;-86
2021/04/19 23:21:40;;;;;;;30.40;24.23;;;10.10;99.90;;;;;;5034697;28;20447;-86